Oak Bowery, Mississippi
Current Conditions -  °F | °C
As of 4:15 PM on Sunday 25 Jan 2015 (Local Time) from KPIB Reporting Station
Clear Clear  
Wind Chill: 64°   Ceiling: Unl
Heat Index: 64°   Visibility: 10mi
Dew Point: 37°   Wind: 13mph
Humidity: 37%   Direction: 220°SW
Pressure: 29.82"   Gusts: 18mph
Location:  31.5533°N, 89.2322°W
Report Text: KPIB 252215Z AUTO 22011G16KT 10SM CLR 18/03 A2982 RMK AO1
Loading
Personal Weather Stations






























Interactive Weather Map New forecast layout! Learn more

10-Day Weather Forecast

Advertisements
Track Severe Weather on mobile